sensor_id;sensor_type;location;lat;lon;timestamp;temperature;humidity
26182;DHT22;13927;51.534;11.866;2022-07-19T00:02:03;17.00;99.90
26182;DHT22;13927;51.534;11.866;2022-07-19T00:04:30;16.90;99.90
26182;DHT22;13927;51.534;11.866;2022-07-19T00:06:56;16.90;99.90
26182;DHT22;13927;51.534;11.866;2022-07-19T00:09:22;16.90;99.90
26182;DHT22;13927;51.534;11.866;2022-07-19T00:11:48;16.80;99.90
26182;DHT22;13927;51.534;11.866;2022-07-19T00:14:15;16.80;99.90
26182;DHT22;13927;51.534;11.866;2022-07-19T00:16:41;16.80;99.90
26182;DHT22;13927;51.534;11.866;2022-07-19T00:19:06;16.80;99.90
26182;DHT22;13927;51.534;11.866;2022-07-19T00:21:32;16.70;99.90
26182;DHT22;13927;51.534;11.866;2022-07-19T00:23:58;16.70;99.90
26182;DHT22;13927;51.534;11.866;2022-07-19T00:26:29;16.70;99.90
26182;DHT22;13927;51.534;11.866;2022-07-19T00:28:55;16.60;99.90
26182;DHT22;13927;51.534;11.866;2022-07-19T00:31:22;16.60;99.90
26182;DHT22;13927;51.534;11.866;2022-07-19T00:33:49;16.60;99.90
26182;DHT22;13927;51.534;11.866;2022-07-19T00:36:16;16.50;99.90
26182;DHT22;13927;51.534;11.866;2022-07-19T00:38:42;16.50;99.90
26182;DHT22;13927;51.534;11.866;2022-07-19T00:41:07;16.40;99.90
26182;DHT22;13927;51.534;11.866;2022-07-19T00:43:33;16.40;99.90
26182;DHT22;13927;51.534;11.866;2022-07-19T00:45:59;16.40;99.90
26182;DHT22;13927;51.534;11.866;2022-07-19T00:48:25;16.40;99.90
26182;DHT22;13927;51.534;11.866;2022-07-19T00:50:51;16.30;99.90
26182;DHT22;13927;51.534;11.866;2022-07-19T00:53:18;16.30;99.90
26182;DHT22;13927;51.534;11.866;2022-07-19T00:55:45;16.20;99.90
26182;DHT22;13927;51.534;11.866;2022-07-19T00:58:12;16.20;99.90
26182;DHT22;13927;51.534;11.866;2022-07-19T01:00:41;16.10;99.90
26182;DHT22;13927;51.534;11.866;2022-07-19T01:03:07;16.10;99.90
26182;DHT22;13927;51.534;11.866;2022-07-19T01:05:34;16.10;99.90
26182;DHT22;13927;51.534;11.866;2022-07-19T01:08:00;16.10;99.90
26182;DHT22;13927;51.534;11.866;2022-07-19T01:10:27;16.10;99.90
26182;DHT22;13927;51.534;11.866;2022-07-19T01:12:53;16.00;99.90
26182;DHT22;13927;51.534;11.866;2022-07-19T01:15:24;16.00;99.90
26182;DHT22;13927;51.534;11.866;2022-07-19T01:17:51;16.00;99.90
26182;DHT22;13927;51.534;11.866;2022-07-19T01:20:19;16.00;99.90
26182;DHT22;13927;51.534;11.866;2022-07-19T01:22:46;16.00;99.90
26182;DHT22;13927;51.534;11.866;2022-07-19T01:25:12;15.90;99.90
26182;DHT22;13927;51.534;11.866;2022-07-19T01:27:39;15.90;99.90
26182;DHT22;13927;51.534;11.866;2022-07-19T01:30:15;15.90;99.90
26182;DHT22;13927;51.534;11.866;2022-07-19T01:32:49;15.80;99.90
26182;DHT22;13927;51.534;11.866;2022-07-19T01:35:15;15.80;99.90
26182;DHT22;13927;51.534;11.866;2022-07-19T01:37:42;15.80;99.90
26182;DHT22;13927;51.534;11.866;2022-07-19T01:40:10;15.70;99.90
26182;DHT22;13927;51.534;11.866;2022-07-19T01:42:39;15.70;99.90
26182;DHT22;13927;51.534;11.866;2022-07-19T01:45:07;15.70;99.90
26182;DHT22;13927;51.534;11.866;2022-07-19T01:47:34;15.70;99.90
26182;DHT22;13927;51.534;11.866;2022-07-19T01:50:00;15.70;99.90
26182;DHT22;13927;51.534;11.866;2022-07-19T01:52:26;15.60;99.90
26182;DHT22;13927;51.534;11.866;2022-07-19T01:54:52;15.60;99.90
26182;DHT22;13927;51.534;11.866;2022-07-19T01:57:18;15.50;99.90
26182;DHT22;13927;51.534;11.866;2022-07-19T01:59:43;15.50;99.90
26182;DHT22;13927;51.534;11.866;2022-07-19T02:02:09;15.50;99.90
26182;DHT22;13927;51.534;11.866;2022-07-19T02:04:36;15.50;99.90
26182;DHT22;13927;51.534;11.866;2022-07-19T02:07:01;15.40;99.90
26182;DHT22;13927;51.534;11.866;2022-07-19T02:09:28;15.40;99.90
26182;DHT22;13927;51.534;11.866;2022-07-19T02:11:54;15.40;99.90
26182;DHT22;13927;51.534;11.866;2022-07-19T02:14:20;15.40;99.90
26182;DHT22;13927;51.534;11.866;2022-07-19T02:16:46;15.30;99.90
26182;DHT22;13927;51.534;11.866;2022-07-19T02:19:12;15.30;99.90
26182;DHT22;13927;51.534;11.866;2022-07-19T02:21:38;15.30;99.90
26182;DHT22;13927;51.534;11.866;2022-07-19T02:24:06;15.30;99.90
26182;DHT22;13927;51.534;11.866;2022-07-19T02:26:33;15.30;99.90
26182;DHT22;13927;51.534;11.866;2022-07-19T02:28:59;15.20;99.90
26182;DHT22;13927;51.534;11.866;2022-07-19T02:31:25;15.20;99.90
26182;DHT22;13927;51.534;11.866;2022-07-19T02:33:50;15.20;99.90
26182;DHT22;13927;51.534;11.866;2022-07-19T02:36:16;15.10;99.90
26182;DHT22;13927;51.534;11.866;2022-07-19T02:38:43;15.10;99.90
26182;DHT22;13927;51.534;11.866;2022-07-19T02:41:09;15.10;99.90
26182;DHT22;13927;51.534;11.866;2022-07-19T02:43:35;15.10;99.90
26182;DHT22;13927;51.534;11.866;2022-07-19T02:46:00;15.00;99.90
26182;DHT22;13927;51.534;11.866;2022-07-19T02:48:26;15.00;99.90
26182;DHT22;13927;51.534;11.866;2022-07-19T02:50:52;15.00;99.90
26182;DHT22;13927;51.534;11.866;2022-07-19T02:53:18;15.00;99.90
26182;DHT22;13927;51.534;11.866;2022-07-19T02:55:43;15.00;99.90
26182;DHT22;13927;51.534;11.866;2022-07-19T02:58:09;15.00;99.90
26182;DHT22;13927;51.534;11.866;2022-07-19T03:00:35;15.00;99.90
26182;DHT22;13927;51.534;11.866;2022-07-19T03:03:01;15.00;99.90
26182;DHT22;13927;51.534;11.866;2022-07-19T03:05:45;15.00;99.90
26182;DHT22;13927;51.534;11.866;2022-07-19T03:08:12;14.90;99.90
26182;DHT22;13927;51.534;11.866;2022-07-19T03:10:38;14.90;99.90
26182;DHT22;13927;51.534;11.866;2022-07-19T03:13:04;14.90;99.90
26182;DHT22;13927;51.534;11.866;2022-07-19T03:15:29;14.80;99.90
26182;DHT22;13927;51.534;11.866;2022-07-19T03:17:55;14.80;99.90
26182;DHT22;13927;51.534;11.866;2022-07-19T03:20:21;14.80;99.90
26182;DHT22;13927;51.534;11.866;2022-07-19T03:22:47;14.90;99.90
26182;DHT22;13927;51.534;11.866;2022-07-19T03:25:13;14.80;99.90
26182;DHT22;13927;51.534;11.866;2022-07-19T03:27:39;14.80;99.90
26182;DHT22;13927;51.534;11.866;2022-07-19T03:30:06;14.80;99.90
26182;DHT22;13927;51.534;11.866;2022-07-19T03:32:32;14.80;99.90
26182;DHT22;13927;51.534;11.866;2022-07-19T03:34:57;14.80;99.90
26182;DHT22;13927;51.534;11.866;2022-07-19T03:37:23;14.80;99.90
26182;DHT22;13927;51.534;11.866;2022-07-19T03:39:49;14.70;99.90
26182;DHT22;13927;51.534;11.866;2022-07-19T03:42:15;14.80;99.90
26182;DHT22;13927;51.534;11.866;2022-07-19T03:44:41;14.80;99.90
26182;DHT22;13927;51.534;11.866;2022-07-19T03:47:08;14.80;99.90
26182;DHT22;13927;51.534;11.866;2022-07-19T03:49:33;14.80;99.90
26182;DHT22;13927;51.534;11.866;2022-07-19T03:51:59;14.80;99.90
26182;DHT22;13927;51.534;11.866;2022-07-19T03:54:25;14.80;99.90
26182;DHT22;13927;51.534;11.866;2022-07-19T03:56:51;14.80;99.90
26182;DHT22;13927;51.534;11.866;2022-07-19T03:59:17;14.90;99.90
26182;DHT22;13927;51.534;11.866;2022-07-19T04:01:43;14.90;99.90
26182;DHT22;13927;51.534;11.866;2022-07-19T04:04:09;14.90;99.90
26182;DHT22;13927;51.534;11.866;2022-07-19T04:06:34;14.90;99.90
26182;DHT22;13927;51.534;11.866;2022-07-19T04:09:00;15.00;99.90
26182;DHT22;13927;51.534;11.866;2022-07-19T04:11:26;15.00;99.90
26182;DHT22;13927;51.534;11.866;2022-07-19T04:13:52;15.10;99.90
26182;DHT22;13927;51.534;11.866;2022-07-19T04:16:18;15.10;99.90
26182;DHT22;13927;51.534;11.866;2022-07-19T04:18:43;15.20;99.90
26182;DHT22;13927;51.534;11.866;2022-07-19T04:21:09;15.20;99.90
26182;DHT22;13927;51.534;11.866;2022-07-19T04:23:35;15.40;99.90
26182;DHT22;13927;51.534;11.866;2022-07-19T04:26:00;15.50;99.90
26182;DHT22;13927;51.534;11.866;2022-07-19T04:28:26;15.60;99.90
26182;DHT22;13927;51.534;11.866;2022-07-19T04:30:52;15.70;99.90
26182;DHT22;13927;51.534;11.866;2022-07-19T04:33:18;15.90;99.90
26182;DHT22;13927;51.534;11.866;2022-07-19T04:35:45;16.00;99.90
26182;DHT22;13927;51.534;11.866;2022-07-19T04:38:11;16.20;99.90
26182;DHT22;13927;51.534;11.866;2022-07-19T04:40:37;16.30;99.90
26182;DHT22;13927;51.534;11.866;2022-07-19T04:43:03;16.40;99.90
26182;DHT22;13927;51.534;11.866;2022-07-19T04:45:30;16.60;99.90
26182;DHT22;13927;51.534;11.866;2022-07-19T04:47:55;16.70;99.90
26182;DHT22;13927;51.534;11.866;2022-07-19T04:50:21;16.90;99.90
26182;DHT22;13927;51.534;11.866;2022-07-19T04:52:47;17.10;99.90
26182;DHT22;13927;51.534;11.866;2022-07-19T04:55:13;17.30;99.90
26182;DHT22;13927;51.534;11.866;2022-07-19T04:57:40;17.40;99.90
26182;DHT22;13927;51.534;11.866;2022-07-19T05:00:08;17.70;99.90
26182;DHT22;13927;51.534;11.866;2022-07-19T05:02:35;17.80;99.90
26182;DHT22;13927;51.534;11.866;2022-07-19T05:05:02;18.00;99.90
26182;DHT22;13927;51.534;11.866;2022-07-19T05:07:29;18.20;99.90
26182;DHT22;13927;51.534;11.866;2022-07-19T05:09:55;18.40;99.90
26182;DHT22;13927;51.534;11.866;2022-07-19T05:12:20;18.60;99.90
26182;DHT22;13927;51.534;11.866;2022-07-19T05:14:46;18.90;99.90
26182;DHT22;13927;51.534;11.866;2022-07-19T05:17:12;19.10;99.90
26182;DHT22;13927;51.534;11.866;2022-07-19T05:19:38;19.30;99.90
26182;DHT22;13927;51.534;11.866;2022-07-19T05:22:04;19.50;99.90
26182;DHT22;13927;51.534;11.866;2022-07-19T05:24:29;19.60;99.90
26182;DHT22;13927;51.534;11.866;2022-07-19T05:26:55;19.90;99.90
26182;DHT22;13927;51.534;11.866;2022-07-19T05:29:21;20.10;99.90
26182;DHT22;13927;51.534;11.866;2022-07-19T05:31:47;20.20;99.90
26182;DHT22;13927;51.534;11.866;2022-07-19T05:34:13;20.40;99.90
26182;DHT22;13927;51.534;11.866;2022-07-19T05:36:39;20.50;99.90
26182;DHT22;13927;51.534;11.866;2022-07-19T05:39:05;20.70;99.90
26182;DHT22;13927;51.534;11.866;2022-07-19T05:41:31;20.90;99.90
26182;DHT22;13927;51.534;11.866;2022-07-19T05:43:56;21.10;99.90
26182;DHT22;13927;51.534;11.866;2022-07-19T05:46:22;21.30;99.90
26182;DHT22;13927;51.534;11.866;2022-07-19T05:48:48;21.40;99.90
26182;DHT22;13927;51.534;11.866;2022-07-19T05:51:14;21.40;99.90
26182;DHT22;13927;51.534;11.866;2022-07-19T05:53:40;21.60;99.90
26182;DHT22;13927;51.534;11.866;2022-07-19T05:56:07;21.80;99.90
26182;DHT22;13927;51.534;11.866;2022-07-19T05:58:33;21.90;99.90
26182;DHT22;13927;51.534;11.866;2022-07-19T06:00:59;22.10;99.90
26182;DHT22;13927;51.534;11.866;2022-07-19T06:03:43;22.30;99.90
26182;DHT22;13927;51.534;11.866;2022-07-19T06:06:13;22.50;99.90
26182;DHT22;13927;51.534;11.866;2022-07-19T06:08:40;22.70;99.90
26182;DHT22;13927;51.534;11.866;2022-07-19T06:11:06;22.90;99.90
26182;DHT22;13927;51.534;11.866;2022-07-19T06:13:31;23.10;99.90
26182;DHT22;13927;51.534;11.866;2022-07-19T06:15:57;23.30;99.90
26182;DHT22;13927;51.534;11.866;2022-07-19T06:18:23;23.50;99.90
26182;DHT22;13927;51.534;11.866;2022-07-19T06:20:49;23.60;99.90
26182;DHT22;13927;51.534;11.866;2022-07-19T06:23:15;23.80;99.90
26182;DHT22;13927;51.534;11.866;2022-07-19T06:25:41;24.00;99.90
26182;DHT22;13927;51.534;11.866;2022-07-19T06:28:06;24.20;99.90
26182;DHT22;13927;51.534;11.866;2022-07-19T06:30:32;24.40;99.90
26182;DHT22;13927;51.534;11.866;2022-07-19T06:32:58;24.60;99.90
26182;DHT22;13927;51.534;11.866;2022-07-19T06:35:24;24.80;99.90
26182;DHT22;13927;51.534;11.866;2022-07-19T06:37:51;25.00;99.90
26182;DHT22;13927;51.534;11.866;2022-07-19T06:40:16;25.10;99.90
26182;DHT22;13927;51.534;11.866;2022-07-19T06:42:42;25.30;99.90
26182;DHT22;13927;51.534;11.866;2022-07-19T06:45:08;25.40;99.90
26182;DHT22;13927;51.534;11.866;2022-07-19T06:47:34;25.60;99.90
26182;DHT22;13927;51.534;11.866;2022-07-19T06:50:00;25.80;99.90
26182;DHT22;13927;51.534;11.866;2022-07-19T06:52:26;25.90;99.90
26182;DHT22;13927;51.534;11.866;2022-07-19T06:54:52;26.10;99.90
26182;DHT22;13927;51.534;11.866;2022-07-19T06:57:18;26.30;99.90
26182;DHT22;13927;51.534;11.866;2022-07-19T06:59:43;26.60;99.90
26182;DHT22;13927;51.534;11.866;2022-07-19T07:02:09;26.80;99.90
26182;DHT22;13927;51.534;11.866;2022-07-19T07:04:35;27.00;99.90
26182;DHT22;13927;51.534;11.866;2022-07-19T07:07:00;27.30;99.90
26182;DHT22;13927;51.534;11.866;2022-07-19T07:09:26;27.50;99.90
26182;DHT22;13927;51.534;11.866;2022-07-19T07:11:52;27.70;99.90
26182;DHT22;13927;51.534;11.866;2022-07-19T07:14:18;28.00;99.90
26182;DHT22;13927;51.534;11.866;2022-07-19T07:16:43;28.20;99.90
26182;DHT22;13927;51.534;11.866;2022-07-19T07:19:09;28.40;99.90
26182;DHT22;13927;51.534;11.866;2022-07-19T07:21:35;28.50;99.90
26182;DHT22;13927;51.534;11.866;2022-07-19T07:24:05;28.70;99.90
26182;DHT22;13927;51.534;11.866;2022-07-19T07:26:31;29.00;99.90
26182;DHT22;13927;51.534;11.866;2022-07-19T07:28:57;29.10;99.90
26182;DHT22;13927;51.534;11.866;2022-07-19T07:31:23;29.30;99.90
26182;DHT22;13927;51.534;11.866;2022-07-19T07:33:49;29.50;99.90
26182;DHT22;13927;51.534;11.866;2022-07-19T07:36:15;29.60;99.90
26182;DHT22;13927;51.534;11.866;2022-07-19T07:38:41;29.80;99.90
26182;DHT22;13927;51.534;11.866;2022-07-19T07:41:07;30.10;99.90
26182;DHT22;13927;51.534;11.866;2022-07-19T07:43:33;30.30;99.90
26182;DHT22;13927;51.534;11.866;2022-07-19T07:45:59;30.60;99.50
26182;DHT22;13927;51.534;11.866;2022-07-19T07:48:24;30.70;98.50
26182;DHT22;13927;51.534;11.866;2022-07-19T07:50:50;30.90;99.10
26182;DHT22;13927;51.534;11.866;2022-07-19T07:53:16;31.10;97.20
26182;DHT22;13927;51.534;11.866;2022-07-19T07:55:42;31.30;95.60
26182;DHT22;13927;51.534;11.866;2022-07-19T07:58:11;31.50;96.30
26182;DHT22;13927;51.534;11.866;2022-07-19T08:00:38;31.60;95.80
26182;DHT22;13927;51.534;11.866;2022-07-19T08:03:05;31.80;95.50
26182;DHT22;13927;51.534;11.866;2022-07-19T08:05:31;32.20;95.00
26182;DHT22;13927;51.534;11.866;2022-07-19T08:07:58;32.50;93.40
26182;DHT22;13927;51.534;11.866;2022-07-19T08:10:27;32.70;93.10
26182;DHT22;13927;51.534;11.866;2022-07-19T08:12:54;32.90;90.70
26182;DHT22;13927;51.534;11.866;2022-07-19T08:15:20;33.00;90.00
26182;DHT22;13927;51.534;11.866;2022-07-19T08:17:47;33.20;90.10
26182;DHT22;13927;51.534;11.866;2022-07-19T08:20:13;33.30;88.60
26182;DHT22;13927;51.534;11.866;2022-07-19T08:22:39;33.50;86.40
26182;DHT22;13927;51.534;11.866;2022-07-19T08:25:05;33.70;86.20
26182;DHT22;13927;51.534;11.866;2022-07-19T08:27:32;33.90;84.90
26182;DHT22;13927;51.534;11.866;2022-07-19T08:29:58;34.10;83.20
26182;DHT22;13927;51.534;11.866;2022-07-19T08:32:25;34.30;81.30
26182;DHT22;13927;51.534;11.866;2022-07-19T08:34:51;34.40;79.50
26182;DHT22;13927;51.534;11.866;2022-07-19T08:37:16;34.50;78.20
26182;DHT22;13927;51.534;11.866;2022-07-19T08:39:42;34.60;78.40
26182;DHT22;13927;51.534;11.866;2022-07-19T08:42:09;34.80;75.40
26182;DHT22;13927;51.534;11.866;2022-07-19T08:44:36;35.00;74.10
26182;DHT22;13927;51.534;11.866;2022-07-19T08:47:05;35.10;74.00
26182;DHT22;13927;51.534;11.866;2022-07-19T08:49:32;35.30;74.40
26182;DHT22;13927;51.534;11.866;2022-07-19T08:51:58;35.50;75.40
26182;DHT22;13927;51.534;11.866;2022-07-19T08:54:24;35.50;74.70
26182;DHT22;13927;51.534;11.866;2022-07-19T08:56:50;35.80;71.60
26182;DHT22;13927;51.534;11.866;2022-07-19T08:59:34;36.20;69.80
26182;DHT22;13927;51.534;11.866;2022-07-19T09:02:00;36.60;66.90
26182;DHT22;13927;51.534;11.866;2022-07-19T09:04:25;36.80;63.30
26182;DHT22;13927;51.534;11.866;2022-07-19T09:06:57;36.90;63.90
26182;DHT22;13927;51.534;11.866;2022-07-19T09:09:31;37.10;63.20
26182;DHT22;13927;51.534;11.866;2022-07-19T09:11:59;37.30;62.30
26182;DHT22;13927;51.534;11.866;2022-07-19T09:14:28;37.50;60.80
26182;DHT22;13927;51.534;11.866;2022-07-19T09:16:59;37.50;59.90
26182;DHT22;13927;51.534;11.866;2022-07-19T09:19:40;37.60;59.30
26182;DHT22;13927;51.534;11.866;2022-07-19T09:22:08;37.50;58.20
26182;DHT22;13927;51.534;11.866;2022-07-19T09:24:37;37.40;58.50
26182;DHT22;13927;51.534;11.866;2022-07-19T09:29:40;37.50;57.50
26182;DHT22;13927;51.534;11.866;2022-07-19T09:32:12;37.80;57.60
26182;DHT22;13927;51.534;11.866;2022-07-19T09:34:42;38.10;56.10
26182;DHT22;13927;51.534;11.866;2022-07-19T09:37:15;38.10;55.90
26182;DHT22;13927;51.534;11.866;2022-07-19T09:39:50;38.10;55.90
26182;DHT22;13927;51.534;11.866;2022-07-19T09:42:23;38.20;55.90
26182;DHT22;13927;51.534;11.866;2022-07-19T09:45:02;38.40;54.20
26182;DHT22;13927;51.534;11.866;2022-07-19T09:47:39;38.50;54.50
26182;DHT22;13927;51.534;11.866;2022-07-19T09:50:15;38.60;52.40
26182;DHT22;13927;51.534;11.866;2022-07-19T09:52:44;38.80;52.20
26182;DHT22;13927;51.534;11.866;2022-07-19T09:55:11;39.00;52.80
26182;DHT22;13927;51.534;11.866;2022-07-19T09:57:45;39.20;52.30
26182;DHT22;13927;51.534;11.866;2022-07-19T10:00:14;39.40;52.30
26182;DHT22;13927;51.534;11.866;2022-07-19T10:02:45;39.50;51.70
26182;DHT22;13927;51.534;11.866;2022-07-19T10:05:14;39.50;50.80
26182;DHT22;13927;51.534;11.866;2022-07-19T10:07:40;39.30;51.40
26182;DHT22;13927;51.534;11.866;2022-07-19T10:10:12;39.40;50.60
26182;DHT22;13927;51.534;11.866;2022-07-19T10:12:41;39.60;50.30
26182;DHT22;13927;51.534;11.866;2022-07-19T10:15:10;39.80;51.30
26182;DHT22;13927;51.534;11.866;2022-07-19T10:18:01;40.00;50.30
26182;DHT22;13927;51.534;11.866;2022-07-19T10:20:31;39.90;49.80
26182;DHT22;13927;51.534;11.866;2022-07-19T10:22:59;40.00;49.00
26182;DHT22;13927;51.534;11.866;2022-07-19T10:25:38;40.10;49.30
26182;DHT22;13927;51.534;11.866;2022-07-19T10:28:28;40.20;49.70
26182;DHT22;13927;51.534;11.866;2022-07-19T10:31:01;40.40;50.40
26182;DHT22;13927;51.534;11.866;2022-07-19T10:35:58;40.10;47.80
26182;DHT22;13927;51.534;11.866;2022-07-19T10:38:39;40.00;48.10
26182;DHT22;13927;51.534;11.866;2022-07-19T10:42:22;40.20;48.80
26182;DHT22;13927;51.534;11.866;2022-07-19T10:47:21;40.60;46.50
26182;DHT22;13927;51.534;11.866;2022-07-19T10:52:44;40.50;47.10
26182;DHT22;13927;51.534;11.866;2022-07-19T11:00:46;41.10;47.30
26182;DHT22;13927;51.534;11.866;2022-07-19T11:05:53;41.70;46.80
26182;DHT22;13927;51.534;11.866;2022-07-19T11:08:40;41.90;45.60
26182;DHT22;13927;51.534;11.866;2022-07-19T11:11:09;41.70;46.60
26182;DHT22;13927;51.534;11.866;2022-07-19T11:13:36;41.90;44.60
26182;DHT22;13927;51.534;11.866;2022-07-19T11:16:03;42.00;44.90
26182;DHT22;13927;51.534;11.866;2022-07-19T11:18:30;41.60;45.00
26182;DHT22;13927;51.534;11.866;2022-07-19T11:20:58;41.50;45.30
26182;DHT22;13927;51.534;11.866;2022-07-19T11:23:32;41.10;45.60
26182;DHT22;13927;51.534;11.866;2022-07-19T11:26:15;41.40;45.60
26182;DHT22;13927;51.534;11.866;2022-07-19T11:28:47;41.70;45.50
26182;DHT22;13927;51.534;11.866;2022-07-19T11:31:17;41.60;45.90
26182;DHT22;13927;51.534;11.866;2022-07-19T11:33:46;41.70;43.70
26182;DHT22;13927;51.534;11.866;2022-07-19T11:36:14;41.50;43.60
26182;DHT22;13927;51.534;11.866;2022-07-19T11:38:41;41.40;43.90
26182;DHT22;13927;51.534;11.866;2022-07-19T11:41:32;41.10;43.70
26182;DHT22;13927;51.534;11.866;2022-07-19T11:44:04;40.90;43.60
26182;DHT22;13927;51.534;11.866;2022-07-19T11:46:37;40.90;44.40
26182;DHT22;13927;51.534;11.866;2022-07-19T11:49:06;41.10;44.50
26182;DHT22;13927;51.534;11.866;2022-07-19T11:51:33;41.40;44.00
26182;DHT22;13927;51.534;11.866;2022-07-19T11:54:01;41.60;43.80
26182;DHT22;13927;51.534;11.866;2022-07-19T11:56:29;41.90;43.00
26182;DHT22;13927;51.534;11.866;2022-07-19T11:58:58;42.10;43.30
26182;DHT22;13927;51.534;11.866;2022-07-19T12:01:38;42.40;42.60
26182;DHT22;13927;51.534;11.866;2022-07-19T12:04:10;42.40;42.10
26182;DHT22;13927;51.534;11.866;2022-07-19T12:06:48;42.50;42.10
26182;DHT22;13927;51.534;11.866;2022-07-19T12:09:25;42.90;41.90
26182;DHT22;13927;51.534;11.866;2022-07-19T12:11:53;43.00;41.80
26182;DHT22;13927;51.534;11.866;2022-07-19T12:14:24;43.30;42.60
26182;DHT22;13927;51.534;11.866;2022-07-19T12:17:17;43.30;40.80
26182;DHT22;13927;51.534;11.866;2022-07-19T12:20:07;43.10;40.90
26182;DHT22;13927;51.534;11.866;2022-07-19T12:22:39;43.20;40.40
26182;DHT22;13927;51.534;11.866;2022-07-19T12:25:09;43.10;41.70
26182;DHT22;13927;51.534;11.866;2022-07-19T12:27:35;43.00;40.00
26182;DHT22;13927;51.534;11.866;2022-07-19T12:30:03;42.90;40.60
26182;DHT22;13927;51.534;11.866;2022-07-19T12:32:34;42.90;41.40
26182;DHT22;13927;51.534;11.866;2022-07-19T12:35:07;42.90;40.80
26182;DHT22;13927;51.534;11.866;2022-07-19T12:37:37;42.70;40.90
26182;DHT22;13927;51.534;11.866;2022-07-19T12:40:21;42.50;40.40
26182;DHT22;13927;51.534;11.866;2022-07-19T12:42:57;42.20;40.30
26182;DHT22;13927;51.534;11.866;2022-07-19T12:45:36;42.20;40.80
26182;DHT22;13927;51.534;11.866;2022-07-19T12:48:05;42.20;40.60
26182;DHT22;13927;51.534;11.866;2022-07-19T12:50:45;42.50;41.00
26182;DHT22;13927;51.534;11.866;2022-07-19T12:53:14;42.80;41.70
26182;DHT22;13927;51.534;11.866;2022-07-19T12:55:43;42.90;39.40
26182;DHT22;13927;51.534;11.866;2022-07-19T12:58:10;42.80;39.90
26182;DHT22;13927;51.534;11.866;2022-07-19T13:00:38;42.50;41.20
26182;DHT22;13927;51.534;11.866;2022-07-19T13:03:05;42.50;40.80
26182;DHT22;13927;51.534;11.866;2022-07-19T13:05:33;42.80;41.10
26182;DHT22;13927;51.534;11.866;2022-07-19T13:07:59;43.00;40.00
26182;DHT22;13927;51.534;11.866;2022-07-19T13:10:28;42.70;38.70
26182;DHT22;13927;51.534;11.866;2022-07-19T13:12:54;42.40;39.30
26182;DHT22;13927;51.534;11.866;2022-07-19T13:15:21;42.10;39.80
26182;DHT22;13927;51.534;11.866;2022-07-19T13:17:47;41.90;41.10
26182;DHT22;13927;51.534;11.866;2022-07-19T13:20:13;42.20;39.90
26182;DHT22;13927;51.534;11.866;2022-07-19T13:22:40;42.30;39.30
26182;DHT22;13927;51.534;11.866;2022-07-19T13:25:07;42.30;38.70
26182;DHT22;13927;51.534;11.866;2022-07-19T13:27:34;42.30;38.80
26182;DHT22;13927;51.534;11.866;2022-07-19T13:30:00;42.20;38.30
26182;DHT22;13927;51.534;11.866;2022-07-19T13:32:25;42.30;39.70
26182;DHT22;13927;51.534;11.866;2022-07-19T13:34:51;42.20;38.70
26182;DHT22;13927;51.534;11.866;2022-07-19T13:37:17;42.10;39.50
26182;DHT22;13927;51.534;11.866;2022-07-19T13:39:44;42.00;39.80
26182;DHT22;13927;51.534;11.866;2022-07-19T13:42:09;41.80;39.40
26182;DHT22;13927;51.534;11.866;2022-07-19T13:44:35;41.50;39.30
26182;DHT22;13927;51.534;11.866;2022-07-19T13:47:01;41.30;40.30
26182;DHT22;13927;51.534;11.866;2022-07-19T13:49:27;41.30;38.80
26182;DHT22;13927;51.534;11.866;2022-07-19T13:51:53;41.20;39.00
26182;DHT22;13927;51.534;11.866;2022-07-19T13:54:19;41.00;38.50
26182;DHT22;13927;51.534;11.866;2022-07-19T13:56:44;40.90;39.10
26182;DHT22;13927;51.534;11.866;2022-07-19T13:59:10;40.80;39.80
26182;DHT22;13927;51.534;11.866;2022-07-19T14:01:36;41.00;40.00
26182;DHT22;13927;51.534;11.866;2022-07-19T14:04:02;41.20;39.60
26182;DHT22;13927;51.534;11.866;2022-07-19T14:06:28;41.30;39.70
26182;DHT22;13927;51.534;11.866;2022-07-19T14:08:54;41.20;39.60
26182;DHT22;13927;51.534;11.866;2022-07-19T14:11:20;41.20;39.50
26182;DHT22;13927;51.534;11.866;2022-07-19T14:13:46;41.30;40.00
26182;DHT22;13927;51.534;11.866;2022-07-19T14:16:12;41.50;38.40
26182;DHT22;13927;51.534;11.866;2022-07-19T14:18:38;41.70;38.50
26182;DHT22;13927;51.534;11.866;2022-07-19T14:21:04;41.80;38.60
26182;DHT22;13927;51.534;11.866;2022-07-19T14:23:30;41.70;39.60
26182;DHT22;13927;51.534;11.866;2022-07-19T14:25:56;41.40;37.50
26182;DHT22;13927;51.534;11.866;2022-07-19T14:28:22;41.40;38.80
26182;DHT22;13927;51.534;11.866;2022-07-19T14:30:48;41.10;38.30
26182;DHT22;13927;51.534;11.866;2022-07-19T14:33:14;41.00;39.00
26182;DHT22;13927;51.534;11.866;2022-07-19T14:35:40;41.00;39.00
26182;DHT22;13927;51.534;11.866;2022-07-19T14:38:06;40.90;39.50
26182;DHT22;13927;51.534;11.866;2022-07-19T14:40:32;40.80;39.50
26182;DHT22;13927;51.534;11.866;2022-07-19T14:42:57;41.00;39.10
26182;DHT22;13927;51.534;11.866;2022-07-19T14:45:23;40.90;38.60
26182;DHT22;13927;51.534;11.866;2022-07-19T14:47:49;40.90;39.30
26182;DHT22;13927;51.534;11.866;2022-07-19T14:50:15;40.50;39.30
26182;DHT22;13927;51.534;11.866;2022-07-19T14:52:41;40.50;39.40
26182;DHT22;13927;51.534;11.866;2022-07-19T14:55:09;40.50;39.80
26182;DHT22;13927;51.534;11.866;2022-07-19T14:57:36;40.40;40.70
26182;DHT22;13927;51.534;11.866;2022-07-19T15:00:06;40.30;41.80
26182;DHT22;13927;51.534;11.866;2022-07-19T15:02:33;40.00;40.90
26182;DHT22;13927;51.534;11.866;2022-07-19T15:04:59;39.90;40.10
26182;DHT22;13927;51.534;11.866;2022-07-19T15:07:25;39.80;40.30
26182;DHT22;13927;51.534;11.866;2022-07-19T15:09:52;39.80;40.00
26182;DHT22;13927;51.534;11.866;2022-07-19T15:12:18;39.70;40.00
26182;DHT22;13927;51.534;11.866;2022-07-19T15:14:44;39.70;39.00
26182;DHT22;13927;51.534;11.866;2022-07-19T15:17:10;39.60;39.50
26182;DHT22;13927;51.534;11.866;2022-07-19T15:19:35;39.40;40.70
26182;DHT22;13927;51.534;11.866;2022-07-19T15:22:02;39.40;40.60
26182;DHT22;13927;51.534;11.866;2022-07-19T15:24:28;39.40;41.20
26182;DHT22;13927;51.534;11.866;2022-07-19T15:26:54;39.30;40.80
26182;DHT22;13927;51.534;11.866;2022-07-19T15:29:20;39.30;39.70
26182;DHT22;13927;51.534;11.866;2022-07-19T15:31:46;39.00;40.80
26182;DHT22;13927;51.534;11.866;2022-07-19T15:34:12;38.80;40.60
26182;DHT22;13927;51.534;11.866;2022-07-19T15:36:38;38.60;40.10
26182;DHT22;13927;51.534;11.866;2022-07-19T15:39:05;38.50;40.20